createdAt,value
2017-12-31T00:01:01.693Z,1001.13
2017-12-31T00:02:10.648Z,1001.12
2017-12-31T00:03:19.424Z,1001.14
2017-12-31T00:04:28.102Z,1001.11
2017-12-31T00:05:37.074Z,1001.08
2017-12-31T00:06:46.042Z,1001.08
2017-12-31T00:07:54.731Z,1001.1
2017-12-31T00:09:04.466Z,1001.1
2017-12-31T00:10:13.410Z,1001.09
2017-12-31T00:11:22.358Z,1001.14
2017-12-31T00:12:31.327Z,1001.13
2017-12-31T00:13:40.272Z,1001.2
2017-12-31T00:14:48.976Z,1001.19
2017-12-31T00:15:58.186Z,1001.21
2017-12-31T00:17:07.412Z,1001.2
2017-12-31T00:18:16.085Z,1001.11
2017-12-31T00:19:24.767Z,1001.11
2017-12-31T00:20:33.476Z,1001.2
2017-12-31T00:21:42.704Z,1001.25
2017-12-31T00:22:51.943Z,1001.28
2017-12-31T00:24:00.852Z,1001.27
2017-12-31T00:25:09.796Z,1001.26
2017-12-31T00:26:18.773Z,1001.27
2017-12-31T00:27:27.702Z,1001.27
2017-12-31T00:28:37.424Z,1001.25
2017-12-31T00:29:46.113Z,1001.26
2017-12-31T00:30:55.341Z,1001.24
2017-12-31T00:32:04.818Z,1001.19
2017-12-31T00:33:14.017Z,1001.13
2017-12-31T00:34:22.700Z,1001.01
2017-12-31T00:35:31.676Z,1000.98
2017-12-31T00:36:40.627Z,1000.98
2017-12-31T00:37:49.572Z,1000.99
2017-12-31T00:38:58.562Z,1001
2017-12-31T00:40:08.025Z,1001
2017-12-31T00:41:16.714Z,1001.03
2017-12-31T00:42:25.658Z,1001.12
2017-12-31T00:43:34.849Z,1001.16
2017-12-31T00:44:44.058Z,1001.14
2017-12-31T00:45:53.010Z,1001.13
2017-12-31T00:47:02.210Z,1001.11
2017-12-31T00:48:11.168Z,1001.1
2017-12-31T00:49:20.123Z,1001.1
2017-12-31T00:50:28.829Z,1001.05
2017-12-31T00:51:38.045Z,1001.07
2017-12-31T00:52:47.253Z,1001.06
2017-12-31T00:53:56.479Z,1001.08
2017-12-31T00:55:05.426Z,1001.07
2017-12-31T00:56:14.365Z,1001.11
2017-12-31T00:57:23.054Z,1001.08
2017-12-31T00:58:32.539Z,1001.1
2017-12-31T00:59:41.496Z,1001.18
2017-12-31T01:00:50.174Z,1001.16
2017-12-31T01:01:59.125Z,1001.16
2017-12-31T01:03:07.816Z,1001.16
2017-12-31T01:04:17.044Z,1001.13
2017-12-31T01:05:25.983Z,1001.09
2017-12-31T01:06:34.998Z,1001.12
2017-12-31T01:07:44.475Z,1001.07
2017-12-31T01:08:53.418Z,1001.05
2017-12-31T01:10:02.364Z,1001.07
2017-12-31T01:11:11.576Z,1001.09
2017-12-31T01:12:20.267Z,1001.09
2017-12-31T01:13:29.243Z,1001.13
2017-12-31T01:14:38.455Z,1001.14
2017-12-31T01:15:47.663Z,1001.13
2017-12-31T01:16:56.613Z,1001.14
2017-12-31T01:18:05.298Z,1001.2
2017-12-31T01:19:15.040Z,1001.15
2017-12-31T01:20:23.719Z,1001.19
2017-12-31T01:21:32.672Z,1001.18
2017-12-31T01:22:42.127Z,1001.22
2017-12-31T01:23:50.813Z,1001.19
2017-12-31T01:24:59.493Z,1001.19
2017-12-31T01:26:08.993Z,1001.2
2017-12-31T01:27:17.939Z,1001.16
2017-12-31T01:28:26.902Z,1001.15
2017-12-31T01:29:35.592Z,1001.18
2017-12-31T01:30:45.081Z,1001.07
2017-12-31T01:31:54.029Z,1001.12
2017-12-31T01:33:03.238Z,1001.1
2017-12-31T01:34:12.178Z,1001.05
2017-12-31T01:35:21.110Z,1001.08
2017-12-31T01:36:30.077Z,1001.06
2017-12-31T01:37:39.012Z,1001.07
2017-12-31T01:38:47.703Z,1000.99
2017-12-31T01:39:56.390Z,1000.99
2017-12-31T01:41:05.061Z,1001.03
2017-12-31T01:42:14.018Z,1001
2017-12-31T01:43:22.718Z,1000.95
2017-12-31T01:44:31.923Z,1000.97
2017-12-31T01:45:41.388Z,1000.94
2017-12-31T01:46:50.599Z,1001
2017-12-31T01:47:59.822Z,1000.99
2017-12-31T01:49:08.510Z,1000.92
2017-12-31T01:50:17.715Z,1001
2017-12-31T01:51:26.468Z,1001.05
2017-12-31T01:52:35.157Z,1001.03
2017-12-31T01:53:43.843Z,1000.96
2017-12-31T01:54:52.786Z,1000.9
2017-12-31T01:56:01.492Z,1000.87
2017-12-31T01:57:10.700Z,1000.88
2017-12-31T01:58:19.642Z,1001.01
2017-12-31T01:59:28.617Z,1001.08
2017-12-31T02:00:37.303Z,1000.93
2017-12-31T02:01:46.259Z,1000.72
2017-12-31T02:02:55.204Z,1000.65
2017-12-31T02:04:04.412Z,1000.78
2017-12-31T02:05:13.622Z,1000.94
2017-12-31T02:06:23.086Z,1000.91
2017-12-31T02:07:32.030Z,1000.83
2017-12-31T02:08:41.252Z,1000.79
2017-12-31T02:09:50.460Z,1000.92
2017-12-31T02:10:59.413Z,1000.98
2017-12-31T02:12:08.623Z,1000.83
2017-12-31T02:13:17.835Z,1000.73
2017-12-31T02:14:26.777Z,1000.65
2017-12-31T02:15:35.982Z,1000.78
2017-12-31T02:16:44.923Z,1000.77
2017-12-31T02:17:53.865Z,1000.75
2017-12-31T02:19:02.809Z,1000.83
2017-12-31T02:20:12.107Z,1000.78
2017-12-31T02:21:21.073Z,1000.74
2017-12-31T02:22:29.752Z,1000.62
2017-12-31T02:23:38.422Z,1000.6
2017-12-31T02:25:19.456Z,1000.55
2017-12-31T02:26:28.780Z,1000.68
2017-12-31T02:27:37.719Z,1000.8
2017-12-31T02:28:46.390Z,1000.63
2017-12-31T02:29:55.068Z,1000.51
2017-12-31T02:31:03.755Z,1000.52
2017-12-31T02:32:12.952Z,1000.49
2017-12-31T02:33:22.170Z,1000.56
2017-12-31T02:34:31.374Z,1000.73
2017-12-31T02:35:40.304Z,1000.77
2017-12-31T02:36:49.756Z,1000.77
2017-12-31T02:37:58.692Z,1000.61
2017-12-31T02:39:07.890Z,1000.53
2017-12-31T02:40:16.826Z,1000.54
2017-12-31T02:41:25.817Z,1000.52
2017-12-31T02:42:35.016Z,1000.46
2017-12-31T02:43:43.955Z,1000.46
2017-12-31T02:44:53.144Z,1000.4
2017-12-31T02:46:02.630Z,1000.37
2017-12-31T02:47:11.573Z,1000.44
2017-12-31T02:48:20.767Z,1000.42
2017-12-31T02:49:29.949Z,1000.45
2017-12-31T02:50:39.585Z,1000.55
2017-12-31T02:51:48.275Z,1000.43
2017-12-31T02:52:56.947Z,1000.42
2017-12-31T02:54:05.623Z,1000.3
2017-12-31T02:55:15.078Z,1000.32
2017-12-31T02:56:23.786Z,1000.33
2017-12-31T02:57:33.001Z,1000.32
2017-12-31T02:58:42.797Z,1000.38
2017-12-31T02:59:51.999Z,1000.35
2017-12-31T03:01:00.939Z,1000.38
2017-12-31T03:02:09.623Z,1000.33
2017-12-31T03:03:18.825Z,1000.28
2017-12-31T03:04:27.759Z,1000.29
2017-12-31T03:05:36.963Z,1000.29
2017-12-31T03:06:45.904Z,1000.31
2017-12-31T03:07:55.096Z,1000.25
2017-12-31T03:09:04.307Z,1000.18
2017-12-31T03:10:13.250Z,1000.18
2017-12-31T03:11:22.445Z,1000.25
2017-12-31T03:12:31.381Z,1000.15
2017-12-31T03:13:40.339Z,1000.17
2017-12-31T03:14:49.011Z,1000.19
2017-12-31T03:15:58.222Z,1000.19
2017-12-31T03:17:07.170Z,1000.25
2017-12-31T03:18:16.367Z,1000.19
2017-12-31T03:19:25.103Z,1000.15
2017-12-31T03:20:34.095Z,1000.09
2017-12-31T03:21:43.049Z,1000.15
2017-12-31T03:22:51.993Z,1000.09
2017-12-31T03:24:01.182Z,1000.02
2017-12-31T03:25:09.858Z,1000.02
2017-12-31T03:26:18.787Z,1000.02
2017-12-31T03:27:27.990Z,1000.02
2017-12-31T03:28:37.207Z,1000
2017-12-31T03:29:46.676Z,999.95
2017-12-31T03:30:55.612Z,999.95
2017-12-31T03:32:05.094Z,999.93
2017-12-31T03:33:14.029Z,999.9
2017-12-31T03:34:23.228Z,999.95
2017-12-31T03:35:32.445Z,999.96
2017-12-31T03:36:41.636Z,999.95
2017-12-31T03:37:51.102Z,999.95
2017-12-31T03:38:59.774Z,999.99
2017-12-31T03:40:08.712Z,999.9
2017-12-31T03:41:17.673Z,999.99
2017-12-31T03:42:26.886Z,999.94
2017-12-31T03:43:35.828Z,999.93
2017-12-31T03:44:45.288Z,999.98
2017-12-31T03:45:54.284Z,999.91
2017-12-31T03:47:03.488Z,999.85
2017-12-31T03:48:13.203Z,999.86
2017-12-31T03:49:22.147Z,999.83
2017-12-31T03:50:31.084Z,999.8
2017-12-31T03:51:40.543Z,999.82
2017-12-31T03:52:49.470Z,999.82
2017-12-31T03:53:58.403Z,999.84
2017-12-31T03:55:07.591Z,999.78
2017-12-31T03:56:16.271Z,999.8
2017-12-31T03:57:25.468Z,999.89
2017-12-31T03:58:34.663Z,999.87
2017-12-31T03:59:43.600Z,999.83
2017-12-31T04:00:52.275Z,999.87
2017-12-31T04:02:01.206Z,999.85
2017-12-31T04:03:10.676Z,999.9
2017-12-31T04:04:19.610Z,999.87
2017-12-31T04:05:28.295Z,999.86
2017-12-31T04:06:36.979Z,999.92
2017-12-31T04:07:46.172Z,999.88
2017-12-31T04:08:54.850Z,999.81
2017-12-31T04:10:03.779Z,999.81
2017-12-31T04:11:12.453Z,999.77
2017-12-31T04:12:21.387Z,999.82
2017-12-31T04:13:30.316Z,999.79
2017-12-31T04:14:38.994Z,999.81
2017-12-31T04:15:47.939Z,999.78
2017-12-31T04:16:56.894Z,999.85
2017-12-31T04:18:06.094Z,999.74
2017-12-31T04:19:15.046Z,999.8
2017-12-31T04:20:24.251Z,999.79
2017-12-31T04:21:33.188Z,999.79
2017-12-31T04:22:42.390Z,999.74
2017-12-31T04:23:51.606Z,999.79
2017-12-31T04:25:00.575Z,999.65
2017-12-31T04:26:09.769Z,999.8
2017-12-31T04:27:18.703Z,999.82
2017-12-31T04:28:27.377Z,999.7
2017-12-31T04:29:36.582Z,999.76
2017-12-31T04:30:45.255Z,999.79
2017-12-31T04:31:53.971Z,999.72
2017-12-31T04:33:02.906Z,999.7
2017-12-31T04:34:11.592Z,999.75
2017-12-31T04:35:20.530Z,999.7
2017-12-31T04:36:29.468Z,999.8
2017-12-31T04:37:38.673Z,999.68
2017-12-31T04:38:47.871Z,999.75
2017-12-31T04:39:56.824Z,999.81
2017-12-31T04:41:05.760Z,999.75
2017-12-31T04:42:14.698Z,999.74
2017-12-31T04:43:23.629Z,999.76
2017-12-31T04:44:32.304Z,999.76
2017-12-31T04:45:41.808Z,999.73
2017-12-31T04:46:50.488Z,999.75
2017-12-31T04:47:59.162Z,999.74
2017-12-31T04:49:07.835Z,999.75
2017-12-31T04:50:17.548Z,999.78
2017-12-31T04:51:26.490Z,999.79
2017-12-31T04:52:35.164Z,999.82
2017-12-31T04:53:44.358Z,999.82
2017-12-31T04:54:53.307Z,999.78
2017-12-31T04:56:02.244Z,999.85
2017-12-31T04:57:11.186Z,999.71
2017-12-31T04:58:20.126Z,999.73
2017-12-31T04:59:29.587Z,999.76
2017-12-31T05:00:38.790Z,999.85
2017-12-31T05:01:48.006Z,999.82
2017-12-31T05:02:57.216Z,999.83
2017-12-31T05:04:06.153Z,999.84
2017-12-31T05:05:14.830Z,999.87
2017-12-31T05:06:23.510Z,999.97
2017-12-31T05:07:32.469Z,999.96
2017-12-31T05:08:41.132Z,999.92
2017-12-31T05:09:50.071Z,999.87
2017-12-31T05:10:59.561Z,999.94
2017-12-31T05:12:09.016Z,999.9
2017-12-31T05:13:18.470Z,999.95
2017-12-31T05:14:27.933Z,999.94
2017-12-31T05:15:37.655Z,999.87
2017-12-31T05:16:46.592Z,999.85
2017-12-31T05:17:55.526Z,999.92
2017-12-31T05:19:04.204Z,999.89
2017-12-31T05:20:13.392Z,999.83
2017-12-31T05:21:22.332Z,999.87
2017-12-31T05:22:31.011Z,999.79
2017-12-31T05:23:40.206Z,999.73
2017-12-31T05:24:49.164Z,999.79
2017-12-31T05:25:58.373Z,999.83
2017-12-31T05:27:07.321Z,999.76
2017-12-31T05:28:16.518Z,999.77
2017-12-31T05:29:25.985Z,999.76
2017-12-31T05:30:34.918Z,999.83
2017-12-31T05:31:43.873Z,999.75
2017-12-31T05:32:53.343Z,999.76
2017-12-31T05:34:02.028Z,999.81
2017-12-31T05:35:10.710Z,999.85
2017-12-31T05:36:19.896Z,999.86
2017-12-31T05:37:29.091Z,999.81
2017-12-31T05:38:38.315Z,999.92
2017-12-31T05:39:47.515Z,999.89
2017-12-31T05:40:56.714Z,999.85
2017-12-31T05:42:05.399Z,999.86
2017-12-31T05:43:14.109Z,999.88
2017-12-31T05:44:23.047Z,999.86
2017-12-31T05:45:31.723Z,999.9
2017-12-31T05:46:40.699Z,999.93
2017-12-31T05:47:49.668Z,1000.03
2017-12-31T05:48:58.604Z,1000
2017-12-31T05:50:07.277Z,1000.03
2017-12-31T05:51:15.954Z,1000.05
2017-12-31T05:52:25.431Z,1000.15
2017-12-31T05:53:34.098Z,1000.12
2017-12-31T05:54:43.049Z,1000.18
2017-12-31T05:55:52.235Z,1000.15
2017-12-31T05:57:01.451Z,1000.21
2017-12-31T05:58:10.768Z,1000.14
2017-12-31T05:59:19.693Z,1000.2
2017-12-31T06:00:28.655Z,1000.23
2017-12-31T06:01:37.324Z,1000.14
2017-12-31T06:02:46.005Z,1000.19
2017-12-31T06:03:54.953Z,1000.16
2017-12-31T06:05:04.667Z,1000.17
2017-12-31T06:06:13.611Z,1000.05
2017-12-31T06:07:22.552Z,1000.13
2017-12-31T06:08:31.230Z,1000.13
2017-12-31T06:09:40.455Z,1000.08
2017-12-31T06:10:49.664Z,1000.09
2017-12-31T06:11:58.592Z,1000.12
2017-12-31T06:13:07.557Z,1000.09
2017-12-31T06:14:16.495Z,1000.1
2017-12-31T06:15:25.435Z,1000.15
2017-12-31T06:16:34.366Z,1000.13
2017-12-31T06:17:43.351Z,1000.13
2017-12-31T06:18:52.064Z,1000.1
2017-12-31T06:20:01.011Z,1000.08
2017-12-31T06:21:10.216Z,1000.09
2017-12-31T06:22:19.413Z,1000.15
2017-12-31T06:23:28.627Z,1000.11
2017-12-31T06:24:37.323Z,1000.13
2017-12-31T06:25:46.783Z,1000.11
2017-12-31T06:26:55.488Z,1000.12
2017-12-31T06:28:04.694Z,1000.13
2017-12-31T06:29:13.628Z,1000.05
2017-12-31T06:30:22.830Z,1000.15
2017-12-31T06:31:32.030Z,1000.05
2017-12-31T06:32:40.741Z,1000.12
2017-12-31T06:33:49.692Z,1000.07
2017-12-31T06:34:58.908Z,1000.1
2017-12-31T06:36:08.548Z,1000.07
2017-12-31T06:37:17.504Z,1000.08
2017-12-31T06:38:26.442Z,1000.05
2017-12-31T06:39:35.118Z,1000.02
2017-12-31T06:40:44.069Z,999.93
2017-12-31T06:41:53.031Z,999.92
2017-12-31T06:43:01.981Z,999.86
2017-12-31T06:44:10.918Z,999.95
2017-12-31T06:45:19.850Z,1000.03
2017-12-31T06:46:28.813Z,1000.02
2017-12-31T06:47:37.997Z,999.96
2017-12-31T06:48:47.450Z,999.96
2017-12-31T06:49:56.649Z,1000.02
2017-12-31T06:51:05.857Z,1000.11
2017-12-31T06:52:15.090Z,1000.11
2017-12-31T06:53:24.031Z,1000.1
2017-12-31T06:54:32.971Z,1000.11
2017-12-31T06:55:42.181Z,1000.13
2017-12-31T06:56:52.180Z,1000.16
2017-12-31T06:58:01.949Z,1000.12
2017-12-31T06:59:10.880Z,1000.13
2017-12-31T07:00:20.069Z,1000.05
2017-12-31T07:01:29.288Z,1000.13
2017-12-31T07:02:37.955Z,999.98
2017-12-31T07:03:46.889Z,1000.01
2017-12-31T07:04:55.951Z,1000.03
2017-12-31T07:06:04.888Z,1000.04
2017-12-31T07:07:13.869Z,1000.05
2017-12-31T07:08:22.800Z,1000.08
2017-12-31T07:09:32.009Z,1000.07
2017-12-31T07:10:40.688Z,1000.05
2017-12-31T07:11:49.383Z,1000.08
2017-12-31T07:12:58.330Z,1000.01
2017-12-31T07:14:07.546Z,1000.1
2017-12-31T07:15:16.739Z,1000.02
2017-12-31T07:16:25.694Z,1000.11
2017-12-31T07:17:34.638Z,1000.07
2017-12-31T07:18:43.322Z,1000.07
2017-12-31T07:19:52.265Z,1000.12
2017-12-31T07:21:01.017Z,1000.1
2017-12-31T07:22:09.953Z,1000.14
2017-12-31T07:23:18.633Z,1000.1
2017-12-31T07:24:27.851Z,1000.13
2017-12-31T07:25:36.817Z,1000.16
2017-12-31T07:26:45.771Z,1000.14
2017-12-31T07:27:54.456Z,1000.18
2017-12-31T07:29:03.150Z,1000.16
2017-12-31T07:30:12.091Z,1000.16
2017-12-31T07:31:21.564Z,1000.22
2017-12-31T07:32:30.761Z,1000.18
2017-12-31T07:33:39.969Z,1000.12
2017-12-31T07:34:48.910Z,1000.17
2017-12-31T07:35:57.598Z,1000.17
2017-12-31T07:37:06.803Z,1000.14
2017-12-31T07:38:15.739Z,1000.11
2017-12-31T07:39:24.678Z,1000.2
2017-12-31T07:40:33.620Z,1000.2
2017-12-31T07:41:42.808Z,1000.19
2017-12-31T07:42:51.503Z,1000.18
2017-12-31T07:44:00.461Z,1000.21
2017-12-31T07:45:09.424Z,1000.22
2017-12-31T07:46:18.890Z,1000.24
2017-12-31T07:47:27.575Z,1000.3
2017-12-31T07:48:37.054Z,1000.25
2017-12-31T07:49:45.994Z,1000.28
2017-12-31T07:50:54.663Z,1000.26
2017-12-31T07:52:03.863Z,1000.24
2017-12-31T07:53:12.794Z,1000.27
2017-12-31T07:54:22.014Z,1000.28
2017-12-31T07:55:30.711Z,1000.27
2017-12-31T07:56:39.400Z,1000.28
2017-12-31T07:57:48.334Z,1000.23
2017-12-31T07:58:57.098Z,1000.21
2017-12-31T08:00:06.036Z,1000.3
2017-12-31T08:01:15.247Z,1000.34
2017-12-31T08:02:24.458Z,1000.34
2017-12-31T08:03:33.401Z,1000.35
2017-12-31T08:04:42.859Z,1000.39
2017-12-31T08:05:51.821Z,1000.4
2017-12-31T08:07:01.305Z,1000.41
2017-12-31T08:08:09.978Z,1000.45
2017-12-31T08:09:19.471Z,1000.39
2017-12-31T08:10:28.456Z,1000.39
2017-12-31T08:11:37.218Z,1000.4
2017-12-31T08:12:46.186Z,1000.4
2017-12-31T08:13:54.883Z,1000.4
2017-12-31T08:15:04.795Z,1000.42
2017-12-31T08:16:13.680Z,1000.38
2017-12-31T08:17:23.298Z,1000.49
2017-12-31T08:18:32.958Z,1000.45
2017-12-31T08:19:42.316Z,1000.41
2017-12-31T08:20:51.260Z,1000.36
2017-12-31T08:22:00.585Z,1000.29
2017-12-31T08:23:12.251Z,1000.25
2017-12-31T08:24:21.032Z,1000.23
2017-12-31T08:25:29.733Z,1000.22
2017-12-31T08:26:38.989Z,1000.18
2017-12-31T08:27:48.597Z,1000.21
2017-12-31T08:28:57.994Z,1000.19
2017-12-31T08:30:08.910Z,1000.16
2017-12-31T08:31:18.956Z,1000.15
2017-12-31T08:32:28.857Z,1000.17
2017-12-31T08:33:38.569Z,1000.14
2017-12-31T08:34:47.768Z,1000.13
2017-12-31T08:35:56.711Z,1000.14
2017-12-31T08:37:05.374Z,1000.11
2017-12-31T08:38:14.599Z,1000.17
2017-12-31T08:39:23.535Z,1000.08
2017-12-31T08:40:32.480Z,1000.18
2017-12-31T08:41:41.996Z,1000.14
2017-12-31T08:42:50.925Z,1000.14
2017-12-31T08:43:59.872Z,1000.2
2017-12-31T08:45:08.584Z,1000.12
2017-12-31T08:46:17.789Z,1000.12
2017-12-31T08:47:26.730Z,1000.13
2017-12-31T08:48:35.663Z,999.98
2017-12-31T08:49:44.867Z,1000.06
2017-12-31T08:50:54.328Z,1000.12
2017-12-31T08:52:03.034Z,1000.1
2017-12-31T08:53:12.270Z,1000.09
2017-12-31T08:54:21.513Z,1000.09
2017-12-31T08:55:30.720Z,1000.11
2017-12-31T08:56:39.672Z,1000.04
2017-12-31T08:57:48.660Z,1000.09
2017-12-31T08:58:57.913Z,1000.05
2017-12-31T09:00:07.245Z,1000
2017-12-31T09:01:16.492Z,1000.01
2017-12-31T09:02:25.433Z,1000.02
2017-12-31T09:03:34.370Z,999.96
2017-12-31T09:04:43.044Z,999.96
2017-12-31T09:05:52.277Z,999.94
2017-12-31T09:07:01.549Z,1000.02
2017-12-31T09:08:11.028Z,999.95
2017-12-31T09:09:20.125Z,999.9
2017-12-31T09:10:29.627Z,999.94
2017-12-31T09:11:38.304Z,1000.01
2017-12-31T09:12:47.754Z,999.98
2017-12-31T09:13:56.452Z,999.98
2017-12-31T09:15:05.121Z,999.92
2017-12-31T09:16:14.083Z,999.93
2017-12-31T09:17:23.034Z,999.92
2017-12-31T09:18:32.247Z,999.91
2017-12-31T09:19:41.450Z,999.93
2017-12-31T09:20:50.126Z,999.93
2017-12-31T09:21:59.356Z,999.98
2017-12-31T09:23:08.318Z,999.92
2017-12-31T09:24:17.574Z,999.94
2017-12-31T09:25:26.276Z,999.95
2017-12-31T09:26:35.223Z,999.96
2017-12-31T09:27:44.183Z,1000.02
2017-12-31T09:28:52.877Z,999.91
2017-12-31T09:30:02.133Z,999.98
2017-12-31T09:31:10.809Z,999.9
2017-12-31T09:32:20.334Z,999.96
2017-12-31T09:33:29.269Z,999.97
2017-12-31T09:34:38.489Z,999.91
2017-12-31T09:35:47.681Z,999.98
2017-12-31T09:36:57.392Z,999.97
2017-12-31T09:38:06.457Z,999.99
2017-12-31T09:39:15.647Z,999.91
2017-12-31T09:40:25.208Z,999.9
2017-12-31T09:41:34.315Z,999.94
2017-12-31T09:42:43.270Z,999.93
2017-12-31T09:43:52.509Z,1000.02
2017-12-31T09:45:01.970Z,1000.06
2017-12-31T09:46:11.243Z,1000
2017-12-31T09:47:20.720Z,1000.04
2017-12-31T09:48:30.196Z,1000.06
2017-12-31T09:49:38.955Z,1000.12
2017-12-31T09:50:47.902Z,1000.14
2017-12-31T09:51:57.464Z,1000.11
2017-12-31T09:53:06.160Z,999.98
2017-12-31T09:54:14.842Z,1000.01
2017-12-31T09:55:23.881Z,1000.05
2017-12-31T09:56:32.656Z,1000.03
2017-12-31T09:57:42.006Z,999.96
2017-12-31T09:58:50.692Z,999.98
2017-12-31T09:59:59.620Z,999.96
2017-12-31T10:01:08.553Z,1000
2017-12-31T10:02:17.529Z,1000.01
2017-12-31T10:03:26.477Z,999.99
2017-12-31T10:04:35.335Z,1000.06
2017-12-31T10:05:44.281Z,1000.08
2017-12-31T10:06:53.234Z,1000.09
2017-12-31T10:08:02.443Z,1000.03
2017-12-31T10:09:11.923Z,1000.13
2017-12-31T10:10:21.131Z,1000.05
2017-12-31T10:11:30.615Z,1000.03
2017-12-31T10:12:39.269Z,1000.08
2017-12-31T10:13:48.464Z,1000.05
2017-12-31T10:14:57.417Z,1000
2017-12-31T10:16:06.098Z,1000.06
2017-12-31T10:17:15.036Z,1000.03
2017-12-31T10:18:24.228Z,1000.02
2017-12-31T10:19:33.414Z,999.96
2017-12-31T10:20:42.375Z,999.93
2017-12-31T10:21:51.054Z,999.88
2017-12-31T10:22:59.749Z,999.84
2017-12-31T10:24:08.960Z,999.87
2017-12-31T10:25:17.904Z,999.93
2017-12-31T10:26:26.842Z,999.94
2017-12-31T10:27:35.793Z,1000.01
2017-12-31T10:28:44.735Z,999.98
2017-12-31T10:29:53.670Z,999.95
2017-12-31T10:31:02.894Z,999.95
2017-12-31T10:32:11.594Z,999.91
2017-12-31T10:33:20.541Z,999.84
2017-12-31T10:34:29.481Z,999.82
2017-12-31T10:35:38.697Z,999.79
2017-12-31T10:36:47.406Z,999.78
2017-12-31T10:37:56.088Z,999.78
2017-12-31T10:39:05.114Z,999.76
2017-12-31T10:40:14.060Z,999.67
2017-12-31T10:41:23.281Z,999.63
2017-12-31T10:42:33.771Z,999.67
2017-12-31T10:43:42.786Z,999.59
2017-12-31T10:44:52.259Z,999.49
2017-12-31T10:46:01.282Z,999.52
2017-12-31T10:47:11.174Z,999.52
2017-12-31T10:48:21.677Z,999.58
2017-12-31T10:49:30.902Z,999.51
2017-12-31T10:50:39.846Z,999.44
2017-12-31T10:51:49.349Z,999.44
2017-12-31T10:52:59.167Z,999.48
2017-12-31T10:54:08.378Z,999.45
2017-12-31T10:55:17.617Z,999.42
2017-12-31T10:56:26.970Z,999.41
2017-12-31T10:57:36.865Z,999.44
2017-12-31T10:58:46.107Z,999.37
2017-12-31T10:59:56.099Z,999.41
2017-12-31T11:01:05.668Z,999.46
2017-12-31T11:02:14.716Z,999.5
2017-12-31T11:03:23.723Z,999.47
2017-12-31T11:04:33.343Z,999.5
2017-12-31T11:05:42.948Z,999.49
2017-12-31T11:06:52.491Z,999.51
2017-12-31T11:08:01.859Z,999.56
2017-12-31T11:09:11.939Z,999.59
2017-12-31T11:10:20.708Z,999.55
2017-12-31T11:11:30.539Z,999.6
2017-12-31T11:12:39.736Z,999.53
2017-12-31T11:13:48.698Z,999.56
2017-12-31T11:14:57.727Z,999.55
2017-12-31T11:16:07.097Z,999.47
2017-12-31T11:17:16.927Z,999.52
2017-12-31T11:18:25.606Z,999.42
2017-12-31T11:19:34.962Z,999.37
2017-12-31T11:20:44.184Z,999.44
2017-12-31T11:21:53.295Z,999.31
2017-12-31T11:23:02.064Z,999.38
2017-12-31T11:24:11.125Z,999.35
2017-12-31T11:25:20.802Z,999.31
2017-12-31T11:26:31.272Z,999.28
2017-12-31T11:27:40.294Z,999.28
2017-12-31T11:28:49.234Z,999.22
2017-12-31T11:29:58.594Z,999.27
2017-12-31T11:31:07.922Z,999.25
2017-12-31T11:32:16.933Z,999.21
2017-12-31T11:33:25.662Z,999.11
2017-12-31T11:34:34.307Z,999.21
2017-12-31T11:35:43.393Z,999.16
2017-12-31T11:36:52.899Z,999.11
2017-12-31T11:38:01.848Z,999.1
2017-12-31T11:39:11.063Z,999.05
2017-12-31T11:40:19.754Z,998.95
2017-12-31T11:41:28.725Z,998.91
2017-12-31T11:42:37.671Z,998.88
2017-12-31T11:43:47.330Z,998.91
2017-12-31T11:44:56.339Z,998.94
2017-12-31T11:46:05.249Z,998.95
2017-12-31T11:47:14.988Z,998.91
2017-12-31T11:48:25.168Z,998.88
2017-12-31T11:49:34.414Z,998.88
2017-12-31T11:50:43.104Z,998.83
2017-12-31T11:51:52.316Z,998.81
2017-12-31T11:53:00.991Z,998.82
2017-12-31T11:54:10.196Z,998.82
2017-12-31T11:55:19.693Z,998.77
2017-12-31T11:56:28.585Z,998.77
2017-12-31T11:57:37.541Z,998.67
2017-12-31T11:58:46.742Z,998.65
2017-12-31T11:59:55.526Z,998.64
2017-12-31T12:01:04.674Z,998.64
2017-12-31T12:02:13.375Z,998.62
2017-12-31T12:03:22.785Z,998.67
2017-12-31T12:04:31.971Z,998.58
2017-12-31T12:05:40.945Z,998.6
2017-12-31T12:06:50.210Z,998.6
2017-12-31T12:07:59.368Z,998.56
2017-12-31T12:09:08.205Z,998.57
2017-12-31T12:10:17.357Z,998.56
2017-12-31T12:11:26.163Z,998.57
2017-12-31T12:12:35.436Z,998.56
2017-12-31T12:13:44.269Z,998.52
2017-12-31T12:14:53.338Z,998.51
2017-12-31T12:16:02.285Z,998.56
2017-12-31T12:17:11.224Z,998.49
2017-12-31T12:18:19.908Z,998.48
2017-12-31T12:19:29.391Z,998.45
2017-12-31T12:20:38.339Z,998.44
2017-12-31T12:21:47.797Z,998.41
2017-12-31T12:22:56.747Z,998.39
2017-12-31T12:24:05.700Z,998.41
2017-12-31T12:25:14.906Z,998.42
2017-12-31T12:26:23.592Z,998.44
2017-12-31T12:27:32.549Z,998.41
2017-12-31T12:28:41.809Z,998.43
2017-12-31T12:29:50.499Z,998.34
2017-12-31T12:30:59.430Z,998.36
2017-12-31T12:32:08.640Z,998.35
2017-12-31T12:33:17.859Z,998.28
2017-12-31T12:34:27.088Z,998.22
2017-12-31T12:35:36.041Z,998.25
2017-12-31T12:36:45.244Z,998.17
2017-12-31T12:37:53.942Z,998.22
2017-12-31T12:39:02.649Z,998.29
2017-12-31T12:40:11.602Z,998.27
2017-12-31T12:41:20.544Z,998.26
2017-12-31T12:42:29.738Z,998.26
2017-12-31T12:43:38.715Z,998.13
2017-12-31T12:44:47.660Z,998.14
2017-12-31T12:45:56.595Z,998.21
2017-12-31T12:47:05.592Z,998.15
2017-12-31T12:48:14.816Z,998.13
2017-12-31T12:49:23.745Z,998.14
2017-12-31T12:50:32.440Z,998.12
2017-12-31T12:51:41.369Z,998.04
2017-12-31T12:52:50.310Z,998.06
2017-12-31T12:53:59.015Z,998
2017-12-31T12:55:08.221Z,998.02
2017-12-31T12:56:17.701Z,998.01
2017-12-31T12:57:26.378Z,997.99
2017-12-31T12:58:35.066Z,997.99
2017-12-31T12:59:43.744Z,998.1
2017-12-31T13:00:52.695Z,998.01
2017-12-31T13:02:02.179Z,998.04
2017-12-31T13:03:11.401Z,998.06
2017-12-31T13:04:20.087Z,997.97
2017-12-31T13:05:29.027Z,997.95
2017-12-31T13:06:37.972Z,997.94
2017-12-31T13:07:47.465Z,997.91
2017-12-31T13:08:56.133Z,997.92
2017-12-31T13:10:05.078Z,997.81
2017-12-31T13:11:14.276Z,997.73
2017-12-31T13:12:23.209Z,997.71
2017-12-31T13:13:32.408Z,997.65
2017-12-31T13:14:41.610Z,997.56
2017-12-31T13:15:50.802Z,997.58
2017-12-31T13:16:59.744Z,997.52
2017-12-31T13:18:08.714Z,997.51
2017-12-31T13:19:17.682Z,997.38
2017-12-31T13:20:27.150Z,997.42
2017-12-31T13:21:36.094Z,997.38
2017-12-31T13:22:45.057Z,997.36
2017-12-31T13:23:54.007Z,997.36
2017-12-31T13:25:02.690Z,997.32
2017-12-31T13:26:11.882Z,997.33
2017-12-31T13:27:20.563Z,997.26
2017-12-31T13:28:29.250Z,997.28
2017-12-31T13:29:37.920Z,997.24
2017-12-31T13:30:46.598Z,997.28
2017-12-31T13:31:55.293Z,997.26
2017-12-31T13:33:03.970Z,997.23
2017-12-31T13:34:13.058Z,997.22
2017-12-31T13:35:21.989Z,997.27
2017-12-31T13:36:30.922Z,997.21
2017-12-31T13:37:39.861Z,997.25
2017-12-31T13:38:48.524Z,997.24
2017-12-31T13:39:58.021Z,997.2
2017-12-31T13:41:07.224Z,997.21
2017-12-31T13:42:16.167Z,997.23
2017-12-31T13:43:25.110Z,997.21
2017-12-31T13:44:34.574Z,997.13
2017-12-31T13:45:43.506Z,997.05
2017-12-31T13:46:52.736Z,997.06
2017-12-31T13:48:01.675Z,997.04
2017-12-31T13:49:10.388Z,997.01
2017-12-31T13:50:19.305Z,997.09
2017-12-31T13:51:28.781Z,997.03
2017-12-31T13:52:38.256Z,996.98
2017-12-31T13:53:47.458Z,997.03
2017-12-31T13:54:56.395Z,996.97
2017-12-31T13:56:05.071Z,997
2017-12-31T13:57:14.001Z,996.96
2017-12-31T13:58:22.943Z,996.94
2017-12-31T13:59:31.897Z,996.99
2017-12-31T14:00:40.826Z,996.99
2017-12-31T14:01:50.038Z,996.99
2017-12-31T14:02:58.723Z,996.96
2017-12-31T14:04:07.683Z,997.03
2017-12-31T14:05:16.369Z,997.02
2017-12-31T14:06:25.056Z,996.91
2017-12-31T14:07:34.256Z,997
2017-12-31T14:08:43.207Z,996.91
2017-12-31T14:09:51.898Z,996.95
2017-12-31T14:11:01.612Z,996.97
2017-12-31T14:12:10.550Z,996.92